createdAt,value
2018-10-19T00:00:54.053Z,98787.16
2018-10-19T00:03:22.537Z,98787.81
2018-10-19T00:05:50.826Z,98786.88
2018-10-19T00:08:19.223Z,98783.77
2018-10-19T00:10:47.598Z,98781.13
2018-10-19T00:13:15.898Z,98777.42
2018-10-19T00:15:44.207Z,98773.83
2018-10-19T00:18:12.537Z,98781.87
2018-10-19T00:20:40.911Z,98772.11
2018-10-19T00:23:09.288Z,98774.10
2018-10-19T00:25:37.542Z,98774.37
2018-10-19T00:28:05.912Z,98769.14
2018-10-19T00:30:34.385Z,98771.69
2018-10-19T00:33:02.690Z,98777.95
2018-10-19T00:35:30.915Z,98773.67
2018-10-19T00:37:59.236Z,98772.37
2018-10-19T00:40:27.930Z,98770.55
2018-10-19T00:42:56.268Z,98768.39
2018-10-19T00:45:29.976Z,98767.80
2018-10-19T00:47:58.258Z,98769.96
2018-10-19T00:50:26.657Z,98767.20
2018-10-19T00:52:54.966Z,98768.91
2018-10-19T00:55:23.244Z,98771.27
2018-10-19T00:57:51.555Z,98771.47
2018-10-19T01:00:20.068Z,98771.69
2018-10-19T01:02:48.631Z,98774.80
2018-10-19T01:05:16.968Z,98776.86
2018-10-19T01:07:45.286Z,98776.83
2018-10-19T01:10:17.737Z,98778.02
2018-10-19T01:12:46.278Z,98777.03
2018-10-19T01:15:14.624Z,98770.69
2018-10-19T01:17:42.936Z,98778.50
2018-10-19T01:20:11.462Z,98780.22
2018-10-19T01:22:39.716Z,98779.97
2018-10-19T01:25:08.064Z,98775.88
2018-10-19T01:27:36.614Z,98772.94
2018-10-19T01:30:06.217Z,98770.36
2018-10-19T01:32:34.669Z,98773.80
2018-10-19T01:35:03.309Z,98767.45
2018-10-19T01:37:31.572Z,98769.20
2018-10-19T01:39:59.964Z,98772.74
2018-10-19T01:42:28.313Z,98768.59
2018-10-19T01:44:57.374Z,98770.81
2018-10-19T01:47:25.644Z,98772.64
2018-10-19T01:49:53.909Z,98772.11
2018-10-19T01:52:22.232Z,98771.72
2018-10-19T01:54:50.701Z,98771.34
2018-10-19T01:57:19.262Z,98773.60
2018-10-19T01:59:47.628Z,98762.42
2018-10-19T02:02:15.904Z,98762.72
2018-10-19T02:04:44.302Z,98761.54
2018-10-19T02:07:12.596Z,98764.55
2018-10-19T02:09:41.080Z,98764.02
2018-10-19T02:12:09.802Z,98763.52
2018-10-19T02:14:38.644Z,98759.95
2018-10-19T02:17:07.392Z,98759.05
2018-10-19T02:19:42.050Z,98754.83
2018-10-19T02:22:10.616Z,98759.09
2018-10-19T02:24:39.022Z,98759.39
2018-10-19T02:27:08.033Z,98758.50
2018-10-19T02:29:36.268Z,98761.41
2018-10-19T02:32:04.819Z,98756.58
2018-10-19T02:34:33.192Z,98753.41
2018-10-19T02:37:01.542Z,98754.89
2018-10-19T02:39:30.068Z,98758.77
2018-10-19T02:41:58.399Z,98750.30
2018-10-19T02:44:26.876Z,98757.59
2018-10-19T02:46:55.239Z,98756.15
2018-10-19T02:49:23.585Z,98753.34
2018-10-19T02:51:51.867Z,98751.16
2018-10-19T02:54:20.529Z,98751.29
2018-10-19T02:56:48.892Z,98755.48
2018-10-19T02:59:17.264Z,98755.05
2018-10-19T03:01:45.707Z,98754.36
2018-10-19T03:04:14.017Z,98750.98
2018-10-19T03:06:42.282Z,98760.33
2018-10-19T03:09:11.431Z,98766.31
2018-10-19T03:11:39.935Z,98763.83
2018-10-19T03:14:08.265Z,98765.90
2018-10-19T03:16:36.591Z,98773.85
2018-10-19T03:19:05.176Z,98758.09
2018-10-19T03:21:33.436Z,98756.61
2018-10-19T03:24:01.780Z,98755.17
2018-10-19T03:26:30.066Z,98765.45
2018-10-19T03:28:58.431Z,98767.49
2018-10-19T03:31:27.019Z,98770.94
2018-10-19T03:33:55.334Z,98767.44
2018-10-19T03:36:23.660Z,98770.02
2018-10-19T03:38:52.081Z,98767.49
2018-10-19T03:41:20.378Z,98765.65
2018-10-19T03:43:48.722Z,98763.58
2018-10-19T03:46:17.208Z,98767.16
2018-10-19T03:48:45.524Z,98767.38
2018-10-19T03:51:13.920Z,98770.70
2018-10-19T03:53:42.173Z,98775.78
2018-10-19T03:56:10.518Z,98770.47
2018-10-19T03:58:38.790Z,98772.62
2018-10-19T04:01:07.384Z,98774.78
2018-10-19T04:03:35.858Z,98780.46
2018-10-19T04:06:04.230Z,98775.64
2018-10-19T04:08:32.653Z,98774.98
2018-10-19T04:11:01.198Z,98775.16
2018-10-19T04:13:29.584Z,98776.67
2018-10-19T04:15:57.970Z,98776.17
2018-10-19T04:18:26.232Z,98782.36
2018-10-19T04:20:54.646Z,98777.69
2018-10-19T04:23:23.114Z,98776.67
2018-10-19T04:25:51.430Z,98773.20
2018-10-19T04:28:19.999Z,98781.55
2018-10-19T04:30:48.316Z,98783.25
2018-10-19T04:33:16.824Z,98779.77
2018-10-19T04:35:45.091Z,98784.72
2018-10-19T04:38:13.394Z,98781.64
2018-10-19T04:40:41.860Z,98786.19
2018-10-19T04:43:10.171Z,98782.78
2018-10-19T04:45:40.490Z,98784.46
2018-10-19T04:48:08.907Z,98791.52
2018-10-19T04:50:37.197Z,98795.73
2018-10-19T04:53:05.600Z,98796.02
2018-10-19T04:55:34.050Z,98793.93
2018-10-19T04:58:02.341Z,98800.07
2018-10-19T05:00:30.683Z,98802.52
2018-10-19T05:02:58.979Z,98807.59
2018-10-19T05:05:27.320Z,98808.30
2018-10-19T05:07:55.571Z,98811.25
2018-10-19T05:10:23.901Z,98810.70
2018-10-19T05:12:52.242Z,98817.84
2018-10-19T05:15:20.535Z,98815.75
2018-10-19T05:17:48.963Z,98822.44
2018-10-19T05:20:17.640Z,98822.59
2018-10-19T05:22:45.868Z,98820.42
2018-10-19T05:25:14.368Z,98817.30
2018-10-19T05:27:42.847Z,98825.17
2018-10-19T05:30:12.440Z,98819.89
2018-10-19T05:32:41.592Z,98827.81
2018-10-19T05:35:09.966Z,98823.12
2018-10-19T05:37:39.180Z,98822.52
2018-10-19T05:40:09.142Z,98827.13
2018-10-19T05:42:37.910Z,98828.05
2018-10-19T05:45:08.644Z,98828.80
2018-10-19T05:47:36.973Z,98830.10
2018-10-19T05:50:06.146Z,98832.22
2018-10-19T05:52:34.651Z,98830.19
2018-10-19T05:55:03.028Z,98835.54
2018-10-19T05:57:31.331Z,98832.44
2018-10-19T05:59:59.661Z,98844.47
2018-10-19T06:02:28.217Z,98848.93
2018-10-19T06:04:56.435Z,98848.27
2018-10-19T06:07:24.784Z,98856.63
2018-10-19T06:09:53.120Z,98862.22
2018-10-19T06:12:21.473Z,98865.77
2018-10-19T06:14:49.984Z,98873.31
2018-10-19T06:17:18.389Z,98866.23
2018-10-19T06:19:46.822Z,98868.81
2018-10-19T06:22:15.140Z,98869.27
2018-10-19T06:24:43.489Z,98873.19
2018-10-19T06:27:11.979Z,98874.39
2018-10-19T06:29:40.464Z,98874.78
2018-10-19T06:32:09.035Z,98881.42
2018-10-19T06:34:37.321Z,98879.86
2018-10-19T06:37:05.694Z,98886.47
2018-10-19T06:39:34.172Z,98887.33
2018-10-19T06:42:02.644Z,98889.11
2018-10-19T06:44:30.956Z,98893.39
2018-10-19T06:46:59.585Z,98893.17
2018-10-19T06:49:27.823Z,98892.16
2018-10-19T06:51:56.118Z,98902.69
2018-10-19T06:54:24.526Z,98895.84
2018-10-19T06:56:52.835Z,98897.28
2018-10-19T06:59:21.315Z,98901.28
2018-10-19T07:01:49.605Z,98893.88
2018-10-19T07:04:17.882Z,98897.70
2018-10-19T07:06:46.270Z,98896.77
2018-10-19T07:09:14.652Z,98909.47
2018-10-19T07:11:42.979Z,98911.02
2018-10-19T07:14:11.432Z,98911.16
2018-10-19T07:16:39.710Z,98906.49
2018-10-19T07:19:08.257Z,98910.19
2018-10-19T07:21:36.471Z,98916.15
2018-10-19T07:24:05.022Z,98918.50
2018-10-19T07:26:33.360Z,98926.43
2018-10-19T07:29:01.670Z,98925.83
2018-10-19T07:31:30.442Z,98918.45
2018-10-19T07:33:58.827Z,98916.46
2018-10-19T07:36:27.210Z,98923.98
2018-10-19T07:38:55.512Z,98929.40
2018-10-19T07:41:23.947Z,98927.19
2018-10-19T07:43:52.367Z,98931.09
2018-10-19T07:46:20.753Z,98931.44
2018-10-19T07:48:49.045Z,98931.49
2018-10-19T07:51:17.393Z,98926.05
2018-10-19T07:53:45.766Z,98928.41
2018-10-19T07:56:14.372Z,98932.38
2018-10-19T07:58:43.034Z,98935.22
2018-10-19T08:01:11.473Z,98933.42
2018-10-19T08:03:39.684Z,98931.18
2018-10-19T08:06:08.056Z,98934.98
2018-10-19T08:08:36.533Z,98928.33
2018-10-19T08:11:05.371Z,98928.09
2018-10-19T08:13:33.792Z,98930.25
2018-10-19T08:16:02.377Z,98931.27
2018-10-19T08:18:30.696Z,98935.66
2018-10-19T08:20:59.091Z,98931.28
2018-10-19T08:23:27.431Z,98932.69
2018-10-19T08:25:55.816Z,98932.52
2018-10-19T08:28:24.214Z,98924.92
2018-10-19T08:30:52.649Z,98931.75
2018-10-19T08:33:20.929Z,98931.17
2018-10-19T08:35:49.453Z,98935.68
2018-10-19T08:38:17.880Z,98928.55
2018-10-19T08:40:46.298Z,98924.06
2018-10-19T08:43:14.656Z,98929.33
2018-10-19T08:45:43.151Z,98932.26
2018-10-19T08:48:11.689Z,98927.98
2018-10-19T08:50:40.081Z,98929.70
2018-10-19T08:53:08.511Z,98931.39
2018-10-19T08:55:36.976Z,98937.88
2018-10-19T08:58:05.794Z,98935.71
2018-10-19T09:00:34.318Z,98939.19
2018-10-19T09:03:03.038Z,98937.12
2018-10-19T09:05:31.352Z,98935.09
2018-10-19T09:07:59.685Z,98934.20
2018-10-19T09:10:27.925Z,98932.91
2018-10-19T09:12:56.358Z,98940.96
2018-10-19T09:15:24.742Z,98933.77
2018-10-19T09:17:53.028Z,98930.07
2018-10-19T09:20:21.550Z,98927.20
2018-10-19T09:22:50.647Z,98929.86
2018-10-19T09:25:18.969Z,98926.17
2018-10-19T09:27:47.308Z,98927.94
2018-10-19T09:30:15.632Z,98930.61
2018-10-19T09:32:44.024Z,98932.71
2018-10-19T09:35:12.617Z,98931.12
2018-10-19T09:37:40.993Z,98930.45
2018-10-19T09:40:09.443Z,98931.04
2018-10-19T09:42:37.757Z,98934.89
2018-10-19T09:45:06.989Z,98935.23
2018-10-19T09:47:35.413Z,98931.91
2018-10-19T09:50:03.823Z,98927.67
2018-10-19T09:52:32.221Z,98926.27
2018-10-19T09:55:00.716Z,98935.98
2018-10-19T09:57:29.010Z,98929.83
2018-10-19T09:59:57.444Z,98924.64
2018-10-19T10:02:26.019Z,98927.31
2018-10-19T10:04:54.486Z,98929.39
2018-10-19T10:07:22.923Z,98930.55
2018-10-19T10:09:51.508Z,98922.94
2018-10-19T10:12:19.972Z,98930.78
2018-10-19T10:14:48.692Z,98926.95
2018-10-19T10:17:17.418Z,98925.47
2018-10-19T10:19:46.197Z,98920.15
2018-10-19T10:22:15.241Z,98921.70
2018-10-19T10:24:43.603Z,98926.10
2018-10-19T10:27:11.931Z,98924.53
2018-10-19T10:29:40.301Z,98918.41
2018-10-19T10:32:08.742Z,98915.66
2018-10-19T10:34:37.091Z,98920.48
2018-10-19T10:37:05.565Z,98913.48
2018-10-19T10:39:33.813Z,98926.42
2018-10-19T10:42:02.199Z,98924.26
2018-10-19T10:44:30.505Z,98918.80
2018-10-19T10:46:58.979Z,98916.01
2018-10-19T10:49:27.255Z,98914.52
2018-10-19T10:51:56.520Z,98913.53
2018-10-19T10:54:24.887Z,98914.53
2018-10-19T10:56:53.680Z,98913.80
2018-10-19T10:59:22.111Z,98906.86
2018-10-19T11:01:50.646Z,98908.73
2018-10-19T11:04:19.281Z,98907.00
2018-10-19T11:06:47.782Z,98900.69
2018-10-19T11:09:16.106Z,98897.61
2018-10-19T11:11:45.325Z,98895.59
2018-10-19T11:14:13.692Z,98901.84
2018-10-19T11:16:42.008Z,98896.92
2018-10-19T11:19:10.450Z,98892.06
2018-10-19T11:21:38.905Z,98889.44
2018-10-19T11:24:07.422Z,98886.59
2018-10-19T11:26:35.835Z,98892.12
2018-10-19T11:29:04.571Z,98889.44
2018-10-19T11:31:32.923Z,98887.57
2018-10-19T11:34:01.463Z,98877.02
2018-10-19T11:36:29.787Z,98874.45
2018-10-19T11:38:59.155Z,98864.02
2018-10-19T11:41:28.331Z,98865.16
2018-10-19T11:43:56.753Z,98860.51
2018-10-19T11:46:25.246Z,98866.77
2018-10-19T11:48:53.861Z,98863.35
2018-10-19T11:51:22.153Z,98851.36
2018-10-19T11:53:50.528Z,98848.44
2018-10-19T11:56:18.871Z,98848.73
2018-10-19T11:58:47.271Z,98841.58
2018-10-19T12:01:15.860Z,98846.89
2018-10-19T12:03:44.477Z,98843.19
2018-10-19T12:06:13.098Z,98851.14
2018-10-19T12:08:41.467Z,98851.33
2018-10-19T12:11:09.830Z,98841.69
2018-10-19T12:13:38.451Z,98838.28
2018-10-19T12:16:07.281Z,98845.08
2018-10-19T12:18:35.825Z,98840.45
2018-10-19T12:21:08.126Z,98839.42
2018-10-19T12:23:37.301Z,98827.74
2018-10-19T12:26:06.294Z,98831.08
2018-10-19T12:28:34.734Z,98827.78
2018-10-19T12:31:03.291Z,98834.39
2018-10-19T12:33:31.558Z,98827.59
2018-10-19T12:36:00.380Z,98825.06
2018-10-19T12:38:28.771Z,98826.03
2018-10-19T12:40:57.181Z,98823.25
2018-10-19T12:43:25.489Z,98828.36
2018-10-19T12:46:46.927Z,98822.22
2018-10-19T12:49:16.897Z,98821.88
2018-10-19T12:51:45.295Z,98823.84
2018-10-19T12:54:13.859Z,98825.28
2018-10-19T12:56:42.244Z,98828.45
2018-10-19T12:59:10.705Z,98823.72
2018-10-19T13:01:39.058Z,98825.28
2018-10-19T13:04:07.561Z,98820.04
2018-10-19T13:06:35.846Z,98815.59
2018-10-19T13:09:07.079Z,98818.55
2018-10-19T13:11:35.357Z,98817.06
2018-10-19T13:14:03.731Z,98809.33
2018-10-19T13:16:32.122Z,98813.27
2018-10-19T13:19:00.546Z,98810.69
2018-10-19T13:21:28.978Z,98810.88
2018-10-19T13:23:57.353Z,98811.68
2018-10-19T13:26:25.790Z,98812.37
2018-10-19T13:28:54.169Z,98808.41
2018-10-19T13:31:22.666Z,98815.67
2018-10-19T13:33:51.072Z,98810.52
2018-10-19T13:36:19.709Z,98808.57
2018-10-19T13:38:48.149Z,98810.91
2018-10-19T13:41:16.572Z,98807.69
2018-10-19T13:43:45.618Z,98808.92
2018-10-19T13:46:14.067Z,98808.28
2018-10-19T13:48:42.465Z,98809.04
2018-10-19T13:51:11.009Z,98807.38
2018-10-19T13:53:39.463Z,98798.67
2018-10-19T13:56:07.899Z,98802.72
2018-10-19T13:58:36.558Z,98794.64
2018-10-19T14:01:05.723Z,98797.80
2018-10-19T14:03:34.206Z,98789.52
2018-10-19T14:06:02.622Z,98795.33
2018-10-19T14:08:31.064Z,98801.87
2018-10-19T14:10:59.448Z,98794.19
2018-10-19T14:13:27.812Z,98790.30
2018-10-19T14:15:56.255Z,98792.84
2018-10-19T14:18:24.749Z,98783.86
2018-10-19T14:20:53.202Z,98795.30
2018-10-19T14:23:21.570Z,98792.91
2018-10-19T14:25:49.989Z,98787.07
2018-10-19T14:28:18.342Z,98785.31
2018-10-19T14:30:46.980Z,98787.86
2018-10-19T14:33:15.411Z,98797.03
2018-10-19T14:35:43.755Z,98791.88
2018-10-19T14:38:12.100Z,98788.44
2018-10-19T14:40:40.509Z,98793.45
2018-10-19T14:43:08.854Z,98788.67
2018-10-19T14:45:37.265Z,98789.82
2018-10-19T14:48:06.027Z,98789.17
2018-10-19T14:50:34.514Z,98790.43
2018-10-19T14:53:03.294Z,98791.83
2018-10-19T14:55:31.686Z,98803.11
2018-10-19T14:58:00.289Z,98803.89
2018-10-19T15:00:28.901Z,98801.73
2018-10-19T15:02:57.224Z,98803.77
2018-10-19T15:05:25.553Z,98795.22
2018-10-19T15:07:54.079Z,98802.92
2018-10-19T15:10:23.135Z,98802.34
2018-10-19T15:12:51.356Z,98803.12
2018-10-19T15:15:21.166Z,98799.50
2018-10-19T15:17:49.464Z,98794.72
2018-10-19T15:20:18.109Z,98801.22
2018-10-19T15:22:46.735Z,98795.91
2018-10-19T15:25:15.037Z,98791.75
2018-10-19T15:27:44.685Z,98796.05
2018-10-19T15:30:15.737Z,98800.23
2018-10-19T15:32:44.027Z,98798.39
2018-10-19T15:35:12.320Z,98798.74
2018-10-19T15:37:40.887Z,98800.73
2018-10-19T15:40:10.039Z,98793.95
2018-10-19T15:42:38.551Z,98799.70
2018-10-19T15:45:08.645Z,98803.30
2018-10-19T15:47:37.003Z,98796.95
2018-10-19T15:50:05.514Z,98803.70
2018-10-19T15:52:33.916Z,98805.63
2018-10-19T15:55:02.229Z,98812.95
2018-10-19T15:57:30.555Z,98808.77
2018-10-19T15:59:58.990Z,98801.43
2018-10-19T16:02:27.307Z,98803.69
2018-10-19T16:04:55.623Z,98803.47
2018-10-19T16:07:23.887Z,98805.39
2018-10-19T16:09:52.357Z,98810.20
2018-10-19T16:12:20.806Z,98815.55
2018-10-19T16:14:49.164Z,98817.42
2018-10-19T16:17:17.433Z,98823.89
2018-10-19T16:19:45.713Z,98821.44
2018-10-19T16:22:14.032Z,98825.14
2018-10-19T16:24:42.324Z,98824.32
2018-10-19T16:27:10.695Z,98829.44
2018-10-19T16:29:38.965Z,98826.45
2018-10-19T16:32:07.404Z,98823.16
2018-10-19T16:34:35.860Z,98830.38
2018-10-19T16:37:04.142Z,98838.48
2018-10-19T16:39:32.392Z,98834.28
2018-10-19T16:42:00.957Z,98839.86
2018-10-19T16:44:29.220Z,98839.77
2018-10-19T16:46:57.525Z,98844.39
2018-10-19T16:49:25.855Z,98841.27
2018-10-19T16:51:54.254Z,98849.87
2018-10-19T16:54:22.550Z,98843.44
2018-10-19T16:56:50.852Z,98846.84
2018-10-19T16:59:19.276Z,98848.88
2018-10-19T17:01:55.645Z,98855.09
2018-10-19T17:04:24.163Z,98847.55
2018-10-19T17:06:52.795Z,98856.28
2018-10-19T17:09:21.333Z,98860.05
2018-10-19T17:11:50.023Z,98864.90
2018-10-19T17:14:18.606Z,98864.79
2018-10-19T17:16:47.323Z,98868.89
2018-10-19T17:19:15.977Z,98866.62
2018-10-19T17:21:44.832Z,98865.44
2018-10-19T17:24:13.539Z,98873.98
2018-10-19T17:26:42.467Z,98879.34
2018-10-19T17:29:12.513Z,98883.91
2018-10-19T17:31:41.068Z,98888.75
2018-10-19T17:34:15.371Z,98887.67
2018-10-19T17:36:44.242Z,98885.93
2018-10-19T17:39:13.161Z,98889.48
2018-10-19T17:41:41.806Z,98894.66
2018-10-19T17:44:10.893Z,98898.53
2018-10-19T17:46:39.570Z,98896.34
2018-10-19T17:49:08.382Z,98898.14
2018-10-19T17:51:36.869Z,98899.44
2018-10-19T17:54:07.747Z,98902.41
2018-10-19T17:56:38.667Z,98902.14
2018-10-19T17:59:07.233Z,98902.15
2018-10-19T18:01:35.725Z,98906.65
2018-10-19T18:04:04.391Z,98909.39
2018-10-19T18:06:33.786Z,98908.51
2018-10-19T18:09:02.356Z,98911.67
2018-10-19T18:11:30.883Z,98908.79
2018-10-19T18:13:59.552Z,98907.77
2018-10-19T18:16:28.614Z,98911.01
2018-10-19T18:18:58.234Z,98913.53
2018-10-19T18:21:27.028Z,98920.28
2018-10-19T18:23:55.516Z,98914.27
2018-10-19T18:26:25.085Z,98923.00
2018-10-19T18:28:53.682Z,98920.87
2018-10-19T18:31:22.556Z,98918.13
2018-10-19T18:33:51.481Z,98917.38
2018-10-19T18:36:20.160Z,98918.19
2018-10-19T18:38:50.240Z,98922.03
2018-10-19T18:41:19.442Z,98921.44
2018-10-19T18:43:48.375Z,98921.58
2018-10-19T18:46:17.061Z,98926.02
2018-10-19T18:48:45.496Z,98936.47
2018-10-19T18:51:14.530Z,98939.75
2018-10-19T18:53:43.338Z,98937.21
2018-10-19T18:56:11.871Z,98950.78
2018-10-19T18:58:40.736Z,98956.13
2018-10-19T19:01:09.353Z,98948.47
2018-10-19T19:03:38.306Z,98950.94
2018-10-19T19:06:06.803Z,98956.39
2018-10-19T19:08:37.782Z,98959.02
2018-10-19T19:11:06.322Z,98966.48
2018-10-19T19:13:38.912Z,98964.73
2018-10-19T19:16:12.143Z,98963.98
2018-10-19T19:18:41.960Z,98964.73
2018-10-19T19:21:11.666Z,98969.98
2018-10-19T19:23:45.292Z,98969.06
2018-10-19T19:26:14.492Z,98973.36
2018-10-19T19:28:43.005Z,98977.23
2018-10-19T19:31:11.842Z,98982.47
2018-10-19T19:33:45.599Z,98984.18
2018-10-19T19:36:14.455Z,98986.71
2018-10-19T19:38:46.265Z,98988.52
2018-10-19T19:41:20.262Z,98997.28
2018-10-19T19:43:48.824Z,98996.40
2018-10-19T19:46:17.247Z,99003.04
2018-10-19T19:48:50.966Z,99014.38
2018-10-19T19:51:19.641Z,99006.67
2018-10-19T19:53:48.680Z,99013.52
2018-10-19T19:56:17.788Z,99013.22
2018-10-19T19:58:48.011Z,99012.56
2018-10-19T20:01:16.936Z,99008.93
2018-10-19T20:03:46.450Z,99009.91
2018-10-19T20:06:15.813Z,99017.14
2018-10-19T20:08:44.733Z,99020.63
2018-10-19T20:11:13.599Z,99028.23
2018-10-19T20:13:42.406Z,99027.89
2018-10-19T20:16:11.089Z,99035.84
2018-10-19T20:18:41.406Z,99034.61
2018-10-19T20:21:09.988Z,99042.34
2018-10-19T20:23:38.979Z,99047.84
2018-10-19T20:26:07.964Z,99048.53
2018-10-19T20:28:48.493Z,99052.31
2018-10-19T20:31:17.174Z,99045.80
2018-10-19T20:33:47.333Z,99043.46
2018-10-19T20:36:15.996Z,99042.41
2018-10-19T20:38:49.754Z,99045.86
2018-10-19T20:41:21.181Z,99043.95
2018-10-19T20:43:49.910Z,99045.42
2018-10-19T20:46:19.780Z,99044.95
2018-10-19T20:48:48.690Z,99051.28
2018-10-19T20:51:17.083Z,99052.59
2018-10-19T20:53:45.906Z,99049.84
2018-10-19T20:56:15.051Z,99047.84
2018-10-19T20:58:54.872Z,99053.94
2018-10-19T21:01:25.688Z,99053.09
2018-10-19T21:03:54.568Z,99054.81
2018-10-19T21:06:24.139Z,99057.86
2018-10-19T21:08:58.427Z,99056.45
2018-10-19T21:11:27.056Z,99060.06
2018-10-19T21:13:55.478Z,99063.81
2018-10-19T21:16:24.842Z,99062.13
2018-10-19T21:18:53.227Z,99065.17
2018-10-19T21:21:21.719Z,99061.14
2018-10-19T21:23:51.322Z,99067.92
2018-10-19T21:26:19.893Z,99072.80
2018-10-19T21:28:48.720Z,99067.83
2018-10-19T21:31:17.988Z,99065.34
2018-10-19T21:33:48.684Z,99063.05
2018-10-19T21:36:18.018Z,99060.93
2018-10-19T21:38:46.485Z,99064.41
2018-10-19T21:41:18.538Z,99070.09
2018-10-19T21:43:49.173Z,99072.11
2018-10-19T21:46:17.553Z,99077.42
2018-10-19T21:48:50.150Z,99078.50
2018-10-19T21:51:20.324Z,99078.25
2018-10-19T21:53:49.814Z,99077.06
2018-10-19T21:56:18.234Z,99076.60
2018-10-19T21:59:02.746Z,99084.80
2018-10-19T22:01:34.968Z,99083.55
2018-10-19T22:04:03.453Z,99087.66
2018-10-19T22:06:32.969Z,99081.64
2018-10-19T22:09:01.542Z,99084.66
2018-10-19T22:11:30.220Z,99084.80
2018-10-19T22:13:58.747Z,99086.00
2018-10-19T22:16:30.993Z,99083.72
2018-10-19T22:18:59.637Z,99086.95
2018-10-19T22:21:28.633Z,99083.03
2018-10-19T22:23:59.222Z,99085.33
2018-10-19T22:26:27.664Z,99082.82
2018-10-19T22:29:00.209Z,99088.00
2018-10-19T22:31:28.824Z,99086.42
2018-10-19T22:33:57.277Z,99086.89
2018-10-19T22:36:26.747Z,99083.41
2018-10-19T22:38:55.434Z,99083.02
2018-10-19T22:41:24.982Z,99092.09
2018-10-19T22:43:53.916Z,99085.29
2018-10-19T22:46:23.065Z,99084.48
2018-10-19T22:48:57.542Z,99087.73
2018-10-19T22:51:26.132Z,99083.05
2018-10-19T22:53:58.318Z,99078.67
2018-10-19T22:56:51.119Z,99083.91
2018-10-19T23:05:06.558Z,99114.45
2018-10-19T23:07:36.602Z,99110.83
2018-10-19T23:10:06.161Z,99121.47
2018-10-19T23:12:40.463Z,99115.23
2018-10-19T23:15:09.180Z,99116.34
2018-10-19T23:17:37.641Z,99111.89
2018-10-19T23:20:09.022Z,99113.14
2018-10-19T23:22:37.477Z,99116.95
2018-10-19T23:25:08.636Z,99114.39
2018-10-19T23:27:37.037Z,99113.07
2018-10-19T23:30:05.855Z,99106.69
2018-10-19T23:32:50.991Z,99106.38
2018-10-19T23:35:19.472Z,99101.73
2018-10-19T23:37:48.118Z,99103.67
2018-10-19T23:40:21.699Z,99103.13
2018-10-19T23:42:50.234Z,99098.52
2018-10-19T23:45:18.661Z,99094.11
2018-10-19T23:47:47.010Z,99106.21
2018-10-19T23:50:15.555Z,99109.05
2018-10-19T23:52:43.868Z,99105.12
2018-10-19T23:55:12.331Z,99102.88
2018-10-19T23:57:40.626Z,99105.92
